Time;durP1;ratioP1;P1;durP2;ratioP2;P2;SDS_P1;SDS_P2;PMS_P1;PMS_P2;Temp;Humidity;BMP_temperature;BMP_pressure;BME280_temperature;BME280_humidity;BME280_pressure;Samples;Min_cycle;Max_cycle;Signal;HPM_P1;HPM_P2
2024/04/10 00:01:31;;;;;;;4.30;1.50;;;;;;;17.30;63.13;100179.94;129750;1262;115315;-67
2024/04/10 00:04:33;;;;;;;4.80;1.30;;;;;;;17.22;63.06;100187.92;129742;1264;114748;-66
2024/04/10 00:07:35;;;;;;;5.30;1.20;;;;;;;17.16;62.94;100195.05;129767;1281;115287;-66
2024/04/10 00:10:37;;;;;;;6.00;1.20;;;;;;;17.08;62.79;100203.69;129880;1264;114745;-68
2024/04/10 00:13:39;;;;;;;2.30;1.20;;;;;;;16.99;62.61;100208.13;129531;1264;114762;-66
2024/04/10 00:16:41;;;;;;;8.70;1.00;;;;;;;16.91;62.39;100211.80;129336;1264;114829;-66
2024/04/10 00:19:50;;;;;;;3.20;1.00;;;;;;;16.81;61.91;100218.52;129727;1264;114800;-67
2024/04/10 00:22:51;;;;;;;4.00;0.80;;;;;;;16.70;61.28;100226.04;129741;1259;127900;-65
2024/04/10 00:25:58;;;;;;;3.20;0.70;;;;;;;16.59;61.11;100234.27;129328;1264;114778;-65
2024/04/10 00:29:02;;;;;;;2.80;1.10;;;;;;;16.50;61.08;100244.83;129516;1263;114745;-63
2024/04/10 00:32:04;;;;;;;2.40;1.00;;;;;;;16.44;61.03;100251.98;129391;1261;115363;-66
2024/04/10 00:35:06;;;;;;;2.20;0.70;;;;;;;16.39;61.01;100248.89;129612;1263;115193;-63
2024/04/10 00:38:07;;;;;;;4.70;0.90;;;;;;;16.34;60.67;100249.95;129663;1264;114735;-65
2024/04/10 00:41:09;;;;;;;5.40;1.10;;;;;;;16.30;60.56;100255.00;129427;1281;128401;-63
2024/04/10 00:44:11;;;;;;;2.30;0.70;;;;;;;16.23;60.09;100260.74;129360;1281;114817;-66
2024/04/10 00:47:12;;;;;;;3.60;1.30;;;;;;;16.14;59.69;100266.23;129459;1265;114823;-64
2024/04/10 00:50:15;;;;;;;3.60;0.80;;;;;;;16.05;59.41;100266.35;129265;1265;115255;-63
2024/04/10 00:53:17;;;;;;;2.20;0.50;;;;;;;15.96;59.14;100275.66;129497;1259;114827;-63
2024/04/10 00:56:20;;;;;;;3.60;0.60;;;;;;;15.87;59.12;100296.30;129415;1259;114825;-65
2024/04/10 00:59:22;;;;;;;1.90;0.50;;;;;;;15.77;58.71;100297.52;129509;1259;114769;-65
2024/04/10 01:02:23;;;;;;;0.90;0.50;;;;;;;15.70;58.50;100308.13;129340;1281;128439;-66
2024/04/10 01:05:26;;;;;;;3.10;0.60;;;;;;;15.63;58.40;100317.06;129455;1281;114748;-65
2024/04/10 01:08:28;;;;;;;1.40;0.60;;;;;;;15.58;58.53;100327.28;129612;1259;114845;-64
2024/04/10 01:11:30;;;;;;;1.60;0.50;;;;;;;15.53;58.57;100337.02;129207;1281;114696;-65
2024/04/10 01:14:32;;;;;;;3.10;0.80;;;;;;;15.48;58.11;100341.85;129774;1259;115266;-65
2024/04/10 01:17:34;;;;;;;0.90;0.50;;;;;;;15.41;58.15;100346.27;129437;1275;114749;-64
2024/04/10 01:20:36;;;;;;;2.20;0.50;;;;;;;15.35;58.10;100355.33;129473;1281;114822;-64
2024/04/10 01:23:38;;;;;;;3.20;0.70;;;;;;;15.28;57.59;100362.65;129360;1281;115113;-65
2024/04/10 01:26:40;;;;;;;2.10;0.50;;;;;;;15.20;57.35;100371.13;129562;1259;114743;-65
2024/04/10 01:29:41;;;;;;;1.00;0.30;;;;;;;15.11;57.28;100376.02;129141;1281;115055;-64
2024/04/10 01:32:43;;;;;;;2.50;0.60;;;;;;;15.03;57.10;100383.55;129441;1281;114708;-64
2024/04/10 01:35:46;;;;;;;1.30;0.50;;;;;;;14.97;57.01;100385.22;129489;1281;114758;-65
2024/04/10 01:38:50;;;;;;;2.90;0.60;;;;;;;14.89;56.71;100393.12;129279;1264;114802;-64
2024/04/10 01:41:51;;;;;;;0.60;0.30;;;;;;;14.82;56.51;100404.77;129384;1267;116513;-66
2024/04/10 01:44:53;;;;;;;0.90;0.40;;;;;;;14.76;56.51;100410.33;129432;1265;114752;-65
2024/04/10 01:47:55;;;;;;;1.70;0.40;;;;;;;14.68;56.27;100415.52;129584;1275;114891;-64
2024/04/10 01:50:57;;;;;;;3.80;0.50;;;;;;;14.60;55.84;100423.94;129306;1267;114759;-66
2024/04/10 01:53:59;;;;;;;2.40;0.60;;;;;;;14.51;55.52;100427.96;129424;1258;115242;-68
2024/04/10 01:57:02;;;;;;;2.90;0.40;;;;;;;14.42;55.39;100433.54;129551;1273;114748;-65
2024/04/10 02:00:04;;;;;;;1.60;0.30;;;;;;;14.35;55.24;100441.16;129417;1259;114874;-67
2024/04/10 02:03:06;;;;;;;3.80;0.60;;;;;;;14.27;55.02;100451.35;129727;1264;114781;-64
2024/04/10 02:06:07;;;;;;;3.00;0.40;;;;;;;14.19;54.78;100452.40;129760;1259;114719;-69
2024/04/10 02:09:09;;;;;;;0.70;0.30;;;;;;;14.10;54.76;100460.47;129164;1265;127617;-68
2024/04/10 02:12:12;;;;;;;2.50;0.50;;;;;;;14.04;54.72;100455.48;129263;1264;248183;-66
2024/04/10 02:15:14;;;;;;;6.10;0.40;;;;;;;13.99;54.79;100452.17;129410;1264;115272;-66
2024/04/10 02:18:16;;;;;;;1.00;0.40;;;;;;;13.95;54.77;100456.70;129386;1266;115154;-65
2024/04/10 02:21:18;;;;;;;1.60;0.40;;;;;;;13.94;54.88;100460.94;129423;1264;114749;-64
2024/04/10 02:24:21;;;;;;;1.00;0.50;;;;;;;13.89;54.77;100462.86;129535;1259;114761;-65
2024/04/10 02:27:23;;;;;;;1.00;0.50;;;;;;;13.83;54.96;100462.98;129403;1264;114812;-66
2024/04/10 02:30:27;;;;;;;2.20;0.40;;;;;;;13.78;55.08;100465.63;129761;1264;115127;-67
2024/04/10 02:33:33;;;;;;;1.90;0.60;;;;;;;13.73;55.08;100483.20;129852;1258;114767;-65
2024/04/10 02:36:35;;;;;;;0.90;0.30;;;;;;;13.68;55.26;100487.24;129756;1264;114772;-68
2024/04/10 02:39:38;;;;;;;1.30;0.50;;;;;;;13.62;55.25;100492.61;129722;1258;115339;-65
2024/04/10 02:42:51;;;;;;;1.10;0.20;;;;;;;13.58;55.36;100505.26;129447;1274;115496;-65
2024/04/10 02:45:54;;;;;;;1.60;0.50;;;;;;;13.52;55.49;100504.54;129691;1259;114736;-64
2024/04/10 02:48:56;;;;;;;1.30;0.40;;;;;;;13.48;55.65;100510.72;129697;1274;114928;-66
2024/04/10 02:51:58;;;;;;;1.50;0.40;;;;;;;13.44;55.82;100524.56;129462;1275;114814;-66
2024/04/10 02:54:59;;;;;;;1.30;0.40;;;;;;;13.40;55.91;100531.21;129549;1264;114755;-64
2024/04/10 02:58:01;;;;;;;2.00;0.40;;;;;;;13.36;56.07;100543.06;129558;1278;114741;-66
2024/04/10 03:01:04;;;;;;;2.20;0.60;;;;;;;13.31;56.11;100544.59;129592;1281;114830;-65
2024/04/10 03:04:06;;;;;;;4.90;0.60;;;;;;;13.29;56.29;100545.84;129555;1264;114751;-64
2024/04/10 03:07:10;;;;;;;2.10;0.60;;;;;;;13.25;56.44;100557.54;129474;1261;115221;-67
2024/04/10 03:10:12;;;;;;;2.60;0.50;;;;;;;13.21;56.62;100561.67;129567;1266;128259;-65
2024/04/10 03:13:14;;;;;;;6.00;0.90;;;;;;;13.18;56.71;100563.48;129440;1264;114744;-65
2024/04/10 03:16:16;;;;;;;2.30;0.50;;;;;;;13.14;56.89;100565.64;129836;1258;115003;-65
2024/04/10 03:19:19;;;;;;;8.20;0.40;;;;;;;13.11;57.00;100571.96;129955;1264;114832;-67
2024/04/10 03:22:21;;;;;;;2.00;0.60;;;;;;;13.08;57.17;100578.73;129855;1259;114763;-65
2024/04/10 03:25:23;;;;;;;1.70;0.60;;;;;;;13.03;57.43;100582.73;129678;1264;114772;-67
2024/04/10 03:28:25;;;;;;;2.30;0.50;;;;;;;13.00;57.64;100590.29;129847;1259;114878;-66
2024/04/10 03:31:27;;;;;;;3.50;0.80;;;;;;;12.96;57.79;100596.05;129761;1259;128865;-68
2024/04/10 03:34:28;;;;;;;4.90;1.10;;;;;;;12.93;57.74;100603.92;129697;1264;114793;-66
2024/04/10 03:37:32;;;;;;;1.10;0.30;;;;;;;12.90;57.99;100604.48;129761;1259;114830;-64
2024/04/10 03:40:33;;;;;;;2.30;0.60;;;;;;;12.88;58.30;100613.19;129527;1265;114789;-64
2024/04/10 03:43:35;;;;;;;1.20;0.40;;;;;;;12.85;58.26;100620.12;129832;1281;114896;-66
2024/04/10 03:46:37;;;;;;;1.50;0.40;;;;;;;12.85;58.59;100621.73;129477;1274;114761;-68
2024/04/10 03:49:39;;;;;;;1.40;0.50;;;;;;;12.85;59.05;100624.80;129396;1263;114914;-67
2024/04/10 03:52:41;;;;;;;2.70;0.50;;;;;;;12.83;59.19;100631.20;129513;1259;114841;-66
2024/04/10 03:55:43;;;;;;;3.20;0.70;;;;;;;12.79;59.23;100639.80;129867;1259;115412;-66
2024/04/10 03:58:51;;;;;;;2.00;0.40;;;;;;;12.75;59.41;100651.65;129957;1267;114775;-64
2024/04/10 04:01:55;;;;;;;1.70;0.60;;;;;;;12.70;59.67;100660.15;129748;1262;114824;-66
2024/04/10 04:04:57;;;;;;;1.40;0.80;;;;;;;12.66;59.68;100667.20;129225;1266;115115;-65
2024/04/10 04:07:58;;;;;;;2.40;0.70;;;;;;;12.61;59.85;100668.70;129325;1259;114763;-65
2024/04/10 04:11:04;;;;;;;2.00;0.90;;;;;;;12.56;60.17;100670.41;129546;1264;115221;-65
2024/04/10 04:14:07;;;;;;;3.40;0.80;;;;;;;12.52;60.35;100679.91;129450;1260;128890;-65
2024/04/10 04:17:09;;;;;;;1.80;0.60;;;;;;;12.48;60.55;100689.46;129453;1260;114868;-63
2024/04/10 04:20:12;;;;;;;3.40;0.80;;;;;;;12.42;60.67;100698.14;129492;1262;115268;-64
2024/04/10 04:23:13;;;;;;;2.80;0.90;;;;;;;12.36;60.57;100702.79;129465;1263;114806;-65
2024/04/10 04:26:16;;;;;;;2.60;0.60;;;;;;;12.30;61.20;100708.27;129431;1259;115423;-65
2024/04/10 04:29:17;;;;;;;3.40;0.90;;;;;;;12.27;60.77;100710.95;129636;1281;114830;-64
2024/04/10 04:32:19;;;;;;;2.00;0.80;;;;;;;12.24;60.85;100721.81;129582;1261;115030;-63
2024/04/10 04:35:21;;;;;;;3.30;0.90;;;;;;;12.21;61.09;100729.11;129607;1264;115416;-66
2024/04/10 04:38:23;;;;;;;2.30;0.70;;;;;;;12.16;61.09;100733.84;129555;1259;114808;-64
2024/04/10 04:41:25;;;;;;;3.40;0.90;;;;;;;12.11;61.06;100743.39;129724;1265;114827;-66
2024/04/10 04:44:27;;;;;;;2.90;1.10;;;;;;;12.09;61.54;100756.21;129428;1265;114758;-66
2024/04/10 04:47:29;;;;;;;2.90;1.00;;;;;;;12.10;61.95;100771.03;129222;1259;114760;-66
2024/04/10 04:50:31;;;;;;;2.10;0.90;;;;;;;12.09;62.54;100772.49;129482;1259;115200;-65
2024/04/10 04:53:33;;;;;;;3.30;1.10;;;;;;;12.07;62.53;100782.31;129550;1265;114833;-68
2024/04/10 04:56:36;;;;;;;3.60;1.20;;;;;;;12.06;62.49;100790.02;129705;1262;128963;-62
2024/04/10 04:59:39;;;;;;;3.20;0.80;;;;;;;12.05;62.56;100795.45;129355;1265;115363;-64
2024/04/10 05:02:41;;;;;;;2.40;0.80;;;;;;;12.02;62.65;100800.38;129414;1265;114763;-64
2024/04/10 05:05:43;;;;;;;4.80;1.50;;;;;;;11.99;63.29;100805.04;129500;1264;114887;-64
2024/04/10 05:08:44;;;;;;;2.50;0.80;;;;;;;11.95;63.66;100810.21;129419;1267;114996;-65
2024/04/10 05:11:47;;;;;;;3.70;1.00;;;;;;;11.90;63.51;100815.08;129505;1274;114797;-66
2024/04/10 05:14:53;;;;;;;2.40;0.90;;;;;;;11.87;63.87;100817.52;129909;1259;115414;-63
2024/04/10 05:17:55;;;;;;;1.90;0.60;;;;;;;11.84;64.44;100822.51;129249;1271;128418;-65
2024/04/10 05:20:57;;;;;;;2.00;0.70;;;;;;;11.81;64.54;100824.23;129434;1264;114992;-66
2024/04/10 05:23:59;;;;;;;2.20;0.60;;;;;;;11.79;64.85;100826.12;129503;1259;114708;-64
2024/04/10 05:27:03;;;;;;;2.50;0.90;;;;;;;11.78;64.99;100827.27;129487;1266;115363;-64
2024/04/10 05:30:07;;;;;;;3.20;1.00;;;;;;;11.76;64.46;100831.47;129182;1266;115381;-67
2024/04/10 05:33:09;;;;;;;3.40;0.60;;;;;;;11.76;65.06;100845.60;129537;1265;114748;-64
2024/04/10 05:36:10;;;;;;;5.90;1.00;;;;;;;11.76;64.88;100851.31;129481;1259;115191;-62
2024/04/10 05:39:19;;;;;;;4.60;0.90;;;;;;;11.77;65.22;100856.64;129502;1263;114830;-65
2024/04/10 05:42:21;;;;;;;2.40;0.60;;;;;;;11.79;65.55;100854.60;129515;1264;115026;-64
2024/04/10 05:45:23;;;;;;;4.40;0.80;;;;;;;11.80;65.15;100862.08;129392;1265;114839;-65
2024/04/10 05:48:24;;;;;;;4.10;0.90;;;;;;;11.82;65.37;100866.98;129517;1264;114820;-65
2024/04/10 05:51:26;;;;;;;3.90;0.90;;;;;;;11.86;65.21;100876.81;129436;1264;114751;-64
2024/04/10 05:54:28;;;;;;;2.80;0.80;;;;;;;11.85;65.51;100882.21;129389;1259;114823;-66
2024/04/10 05:57:30;;;;;;;5.40;1.10;;;;;;;11.85;65.35;100886.54;129919;1263;115698;-66
2024/04/10 06:00:32;;;;;;;2.50;0.80;;;;;;;11.86;65.60;100887.92;129474;1263;127624;-62
2024/04/10 06:03:34;;;;;;;5.20;1.10;;;;;;;11.87;65.46;100895.59;129318;1259;114824;-65
2024/04/10 06:06:36;;;;;;;2.50;0.70;;;;;;;11.87;65.68;100900.23;129449;1265;114758;-63
2024/04/10 06:09:38;;;;;;;3.20;0.80;;;;;;;11.84;65.85;100909.66;129429;1263;114757;-64
2024/04/10 06:12:40;;;;;;;5.10;1.20;;;;;;;11.82;65.86;100911.00;129820;1259;115422;-64
2024/04/10 06:15:42;;;;;;;4.50;1.20;;;;;;;11.80;65.80;100912.36;129412;1264;114886;-64
2024/04/10 06:18:44;;;;;;;4.40;1.60;;;;;;;11.77;66.06;100922.49;129434;1274;114763;-64
2024/04/10 06:21:46;;;;;;;3.60;1.00;;;;;;;11.77;66.07;100925.04;129660;1260;114762;-65
2024/04/10 06:24:48;;;;;;;2.20;1.00;;;;;;;11.74;66.14;100936.77;129488;1263;114911;-64
2024/04/10 06:27:50;;;;;;;3.00;1.10;;;;;;;11.74;66.52;100940.90;129429;1263;114705;-65
2024/04/10 06:31:02;;;;;;;3.00;1.30;;;;;;;11.74;66.40;100940.55;129426;1258;114807;-64
2024/04/10 06:34:04;;;;;;;4.30;1.20;;;;;;;11.75;66.18;100941.40;129259;1262;114772;-64
2024/04/10 06:37:06;;;;;;;3.00;1.50;;;;;;;11.76;66.48;100945.46;129521;1264;115244;-63
2024/04/10 06:40:10;;;;;;;2.80;1.30;;;;;;;11.77;66.77;100954.90;129500;1259;115664;-64
2024/04/10 06:43:12;;;;;;;3.00;1.20;;;;;;;11.78;66.72;100963.45;129192;1264;127900;-63
2024/04/10 06:46:16;;;;;;;4.90;1.20;;;;;;;11.78;66.48;100967.56;129360;1274;114896;-64
2024/04/10 06:49:19;;;;;;;2.90;1.10;;;;;;;11.77;66.77;100965.27;129476;1265;114778;-65
2024/04/10 06:52:20;;;;;;;2.40;1.00;;;;;;;11.80;66.68;100970.16;129387;1275;114865;-65
2024/04/10 06:55:22;;;;;;;4.00;1.40;;;;;;;11.81;66.62;100973.70;129551;1264;114866;-64
2024/04/10 06:58:25;;;;;;;5.40;1.50;;;;;;;11.84;67.04;100982.32;129032;1266;114973;-63
2024/04/10 07:01:27;;;;;;;11.00;1.90;;;;;;;11.88;67.19;100988.80;129174;1266;114955;-62
2024/04/10 07:04:30;;;;;;;3.30;1.60;;;;;;;11.89;66.98;100993.05;129173;1285;116033;-64
2024/04/10 07:07:31;;;;;;;2.20;0.80;;;;;;;11.92;67.03;100994.00;128840;1261;115519;-64
2024/04/10 07:10:33;;;;;;;4.60;1.60;;;;;;;11.94;66.75;100994.25;129104;1267;114866;-64
2024/04/10 07:13:35;;;;;;;7.40;2.10;;;;;;;12.01;66.85;101005.95;129112;1267;114971;-64
2024/04/10 07:16:37;;;;;;;3.20;1.40;;;;;;;12.07;67.07;101012.69;129239;1265;115432;-63
2024/04/10 07:19:39;;;;;;;5.90;1.50;;;;;;;12.10;66.92;101017.56;129488;1281;114773;-65
2024/04/10 07:22:41;;;;;;;2.90;1.20;;;;;;;12.09;66.89;101021.72;129426;1265;114754;-64
2024/04/10 07:25:43;;;;;;;2.70;0.90;;;;;;;12.10;66.85;101024.75;129349;1264;128593;-64
2024/04/10 07:28:55;;;;;;;2.40;1.10;;;;;;;12.13;66.74;101025.69;129368;1259;114808;-65
2024/04/10 07:31:57;;;;;;;4.00;1.70;;;;;;;12.14;67.08;101018.98;129285;1264;114909;-65
2024/04/10 07:34:59;;;;;;;6.20;1.50;;;;;;;12.19;67.07;101018.63;129385;1259;114744;-66
2024/04/10 07:38:01;;;;;;;4.00;1.10;;;;;;;12.23;67.06;101019.70;129486;1264;114879;-64
2024/04/10 07:41:04;;;;;;;3.30;1.30;;;;;;;12.28;66.71;101025.17;129169;1281;114985;-66
2024/04/10 07:44:07;;;;;;;1.90;0.90;;;;;;;12.31;66.75;101024.88;129409;1259;114828;-65
2024/04/10 07:47:08;;;;;;;1.90;0.90;;;;;;;12.32;66.80;101032.33;129429;1281;114885;-65
2024/04/10 07:50:11;;;;;;;3.10;1.10;;;;;;;12.33;66.62;101036.42;129432;1260;115525;-65
2024/04/10 07:53:12;;;;;;;2.70;1.30;;;;;;;12.34;66.53;101035.32;129342;1263;114856;-64
2024/04/10 07:56:15;;;;;;;5.00;1.40;;;;;;;12.38;66.69;101033.33;129457;1264;115241;-65
2024/04/10 07:59:17;;;;;;;3.60;1.10;;;;;;;12.46;66.31;101041.95;129533;1264;114944;-65
2024/04/10 08:02:19;;;;;;;3.20;1.30;;;;;;;12.55;66.53;101041.72;129279;1259;115053;-64
2024/04/10 08:05:21;;;;;;;1.90;0.90;;;;;;;12.64;66.17;101040.94;129619;1274;114892;-65
2024/04/10 08:08:23;;;;;;;2.90;1.10;;;;;;;12.70;66.01;101051.42;129493;1264;114836;-66
2024/04/10 08:11:27;;;;;;;3.00;1.00;;;;;;;12.72;65.86;101054.36;129684;1264;114858;-65
2024/04/10 08:14:29;;;;;;;2.20;1.10;;;;;;;12.75;66.09;101060.67;129648;1265;115670;-66
2024/04/10 08:17:31;;;;;;;1.40;0.80;;;;;;;12.77;65.87;101066.31;129354;1281;114801;-65
2024/04/10 08:20:33;;;;;;;3.70;0.90;;;;;;;12.80;65.75;101073.36;129535;1264;114812;-65
2024/04/10 08:23:36;;;;;;;3.30;1.00;;;;;;;12.82;65.67;101076.70;129918;1265;114896;-65
2024/04/10 08:26:40;;;;;;;2.20;0.80;;;;;;;12.88;65.80;101080.17;129345;1264;114852;-63
2024/04/10 08:29:47;;;;;;;3.20;1.10;;;;;;;12.99;65.76;101082.15;129389;1267;115417;-66
2024/04/10 08:32:50;;;;;;;5.40;1.40;;;;;;;13.13;65.63;101083.66;129372;1265;114893;-64
2024/04/10 08:35:57;;;;;;;3.70;1.00;;;;;;;13.25;65.69;101081.81;129651;1263;114757;-63
2024/04/10 08:38:59;;;;;;;2.40;1.30;;;;;;;13.37;65.45;101082.52;129452;1281;115621;-64
2024/04/10 08:42:03;;;;;;;1.80;1.00;;;;;;;13.45;65.25;101082.88;129456;1265;114761;-64
2024/04/10 08:45:06;;;;;;;4.70;1.50;;;;;;;13.54;65.09;101087.64;129410;1264;114882;-64
2024/04/10 08:48:08;;;;;;;3.30;1.20;;;;;;;13.63;64.83;101091.70;129398;1264;115133;-65
2024/04/10 08:51:12;;;;;;;2.00;0.80;;;;;;;13.71;64.79;101093.98;129797;1264;115210;-64
2024/04/10 08:54:16;;;;;;;3.70;1.20;;;;;;;13.81;64.29;101099.58;129432;1265;114803;-64
2024/04/10 08:57:18;;;;;;;2.80;1.10;;;;;;;13.87;64.15;101107.38;129311;1275;114882;-65
2024/04/10 09:00:20;;;;;;;4.60;1.20;;;;;;;13.91;64.09;101117.25;129536;1264;114770;-65
2024/04/10 09:03:23;;;;;;;3.90;1.20;;;;;;;13.95;63.79;101126.91;129780;1259;114730;-62
2024/04/10 09:06:24;;;;;;;2.40;1.00;;;;;;;13.96;63.62;101130.80;129873;1272;115201;-65
2024/04/10 09:09:26;;;;;;;5.10;1.00;;;;;;;13.95;63.22;101137.13;129578;1263;114826;-66
2024/04/10 09:12:28;;;;;;;2.40;1.40;;;;;;;13.93;62.93;101144.23;129693;1274;114884;-65
2024/04/10 09:15:31;;;;;;;3.20;0.80;;;;;;;13.86;62.78;101146.02;129235;1268;114811;-65
2024/04/10 09:18:32;;;;;;;2.30;0.90;;;;;;;13.83;62.58;101151.21;129374;1281;114912;-64
2024/04/10 09:21:35;;;;;;;2.10;0.90;;;;;;;13.77;62.33;101156.33;129406;1275;114774;-65
2024/04/10 09:24:37;;;;;;;3.70;1.00;;;;;;;13.77;62.49;101159.04;129429;1264;128874;-64
2024/04/10 09:27:39;;;;;;;3.70;0.80;;;;;;;13.77;62.67;101160.80;129447;1263;114873;-65
2024/04/10 09:30:41;;;;;;;2.60;0.70;;;;;;;13.83;62.76;101165.55;129518;1263;114749;-64
2024/04/10 09:33:44;;;;;;;3.50;1.20;;;;;;;13.84;62.60;101165.34;129465;1264;114829;-63
2024/04/10 09:36:47;;;;;;;3.30;1.10;;;;;;;13.87;62.52;101168.08;129485;1281;114842;-66
2024/04/10 09:39:50;;;;;;;6.50;0.90;;;;;;;13.87;62.42;101168.59;129518;1264;114740;-66
2024/04/10 09:43:06;;;;;;;1.80;0.80;;;;;;;13.89;62.22;101176.08;129720;1259;114894;-65
2024/04/10 09:46:09;;;;;;;1.80;0.70;;;;;;;13.88;61.97;101189.40;129220;1275;115045;-63
2024/04/10 09:49:12;;;;;;;3.10;0.90;;;;;;;13.88;61.92;101197.13;129487;1264;114822;-65
2024/04/10 09:52:14;;;;;;;2.80;0.60;;;;;;;13.87;61.61;101206.11;129485;1276;115161;-63
2024/04/10 09:55:17;;;;;;;3.10;0.70;;;;;;;13.81;61.26;101208.38;129372;1264;114860;-63
2024/04/10 09:58:19;;;;;;;4.00;0.60;;;;;;;13.77;61.19;101209.33;129533;1264;114945;-64
2024/04/10 10:01:25;;;;;;;2.60;0.60;;;;;;;13.76;61.36;101216.39;129399;1265;128462;-64
2024/04/10 10:04:36;;;;;;;3.90;0.70;;;;;;;13.76;61.15;101221.74;129332;1259;114958;-63
2024/04/10 10:07:38;;;;;;;4.60;0.90;;;;;;;13.79;61.30;101228.08;129261;1264;114801;-64
2024/04/10 10:10:44;;;;;;;3.20;0.90;;;;;;;13.81;61.19;101231.39;129481;1264;115285;-65
2024/04/10 10:13:59;;;;;;;2.60;1.00;;;;;;;13.83;61.03;101237.73;129462;1265;114751;-64
2024/04/10 10:17:08;;;;;;;3.20;0.70;;;;;;;13.88;61.06;101241.80;129315;1281;127795;-64
2024/04/10 10:20:20;;;;;;;4.60;0.80;;;;;;;14.00;61.25;101242.85;129335;1266;115018;-65
2024/04/10 10:23:22;;;;;;;3.10;0.90;;;;;;;14.08;60.95;101243.16;129500;1272;114817;-64
2024/04/10 10:26:25;;;;;;;2.90;0.90;;;;;;;14.14;60.82;101243.82;129850;1265;114787;-64
2024/04/10 10:29:30;;;;;;;3.20;0.80;;;;;;;14.19;60.79;101251.44;129444;1274;115315;-64
2024/04/10 10:32:32;;;;;;;1.70;0.50;;;;;;;14.24;60.62;101256.23;129393;1263;128795;-64
2024/04/10 10:35:34;;;;;;;5.40;1.00;;;;;;;14.26;60.52;101249.29;129752;1265;114892;-63
2024/04/10 10:38:36;;;;;;;3.00;0.60;;;;;;;14.28;60.51;101256.39;129462;1259;114821;-63
2024/04/10 10:41:38;;;;;;;2.20;1.00;;;;;;;14.29;60.55;101259.95;129357;1265;114888;-63
2024/04/10 10:44:40;;;;;;;2.80;1.30;;;;;;;14.30;60.51;101269.80;129437;1265;114813;-65
2024/04/10 10:47:43;;;;;;;3.40;0.90;;;;;;;14.26;60.44;101268.89;129608;1263;114877;-64
2024/04/10 10:50:53;;;;;;;4.20;1.20;;;;;;;14.23;60.36;101269.21;129556;1259;114836;-64
2024/04/10 10:53:56;;;;;;;2.70;0.60;;;;;;;14.24;60.36;101269.88;129320;1281;127992;-65
2024/04/10 10:57:05;;;;;;;3.00;0.70;;;;;;;14.26;60.33;101270.50;129548;1275;115300;-65
2024/04/10 11:00:29;;;;;;;4.20;0.90;;;;;;;14.29;60.33;101273.06;129625;1259;114838;-65
2024/04/10 11:03:32;;;;;;;4.30;0.90;;;;;;;14.35;60.14;101270.95;129567;1281;114836;-66
2024/04/10 11:06:34;;;;;;;2.50;0.90;;;;;;;14.43;60.32;101271.64;129646;1281;114740;-65
2024/04/10 11:09:36;;;;;;;1.50;0.70;;;;;;;14.53;60.11;101274.38;129630;1281;114822;-66
2024/04/10 11:12:38;;;;;;;4.00;1.00;;;;;;;14.60;59.93;101280.89;129253;1281;128553;-65
2024/04/10 11:15:45;;;;;;;1.60;0.80;;;;;;;14.68;59.68;101279.58;129530;1272;114848;-65
2024/04/10 11:18:48;;;;;;;2.70;1.00;;;;;;;14.82;59.71;101282.50;129657;1277;115412;-66
2024/04/10 11:21:50;;;;;;;2.20;1.10;;;;;;;14.94;59.45;101293.02;129288;1266;114755;-65
2024/04/10 11:24:53;;;;;;;4.30;1.50;;;;;;;15.07;59.12;101293.27;129498;1263;114743;-65
2024/04/10 11:27:57;;;;;;;6.00;2.60;;;;;;;15.13;59.00;101298.66;129574;1266;114892;-66
2024/04/10 11:30:59;;;;;;;2.80;1.10;;;;;;;15.25;58.83;101302.73;129722;1263;114801;-65
2024/04/10 11:34:00;;;;;;;2.60;1.00;;;;;;;15.34;58.71;101310.02;129483;1277;114707;-64
2024/04/10 11:37:03;;;;;;;1.80;0.90;;;;;;;15.39;58.41;101310.80;129517;1260;114806;-65
2024/04/10 11:40:11;;;;;;;4.40;1.00;;;;;;;15.42;58.30;101309.75;129635;1263;114780;-64
2024/04/10 11:43:14;;;;;;;3.30;1.10;;;;;;;15.42;58.28;101310.81;129444;1263;114817;-66
2024/04/10 11:46:16;;;;;;;3.70;1.40;;;;;;;15.44;58.30;101313.77;129421;1265;114778;-65
2024/04/10 11:49:18;;;;;;;3.20;1.00;;;;;;;15.53;58.34;101314.00;129456;1264;115390;-65
2024/04/10 11:52:20;;;;;;;2.00;1.00;;;;;;;15.62;58.11;101310.27;129325;1267;114831;-64
2024/04/10 11:55:22;;;;;;;4.20;1.40;;;;;;;15.70;57.77;101314.21;129605;1263;116338;-65
2024/04/10 11:58:24;;;;;;;2.90;1.30;;;;;;;15.74;57.79;101316.84;129577;1264;115286;-64
2024/04/10 12:01:27;;;;;;;3.70;1.40;;;;;;;15.73;57.39;101321.60;129655;1260;115229;-65
2024/04/10 12:04:29;;;;;;;4.60;2.50;;;;;;;15.72;57.61;101325.05;129609;1259;114757;-65
2024/04/10 12:07:33;;;;;;;2.60;1.80;;;;;;;15.74;57.65;101324.94;129655;1263;114824;-64
2024/04/10 12:10:35;;;;;;;4.50;1.90;;;;;;;15.75;57.21;101326.72;129577;1281;130094;-66
2024/04/10 12:13:43;;;;;;;8.40;1.90;;;;;;;15.73;57.22;101329.86;129556;1278;115058;-65
2024/04/10 12:16:46;;;;;;;4.70;2.20;;;;;;;15.68;57.19;101327.61;129282;1265;114957;-65
2024/04/10 12:19:48;;;;;;;3.80;2.10;;;;;;;15.64;57.22;101327.65;129508;1264;114861;-65
2024/04/10 12:22:50;;;;;;;4.30;1.50;;;;;;;15.62;57.35;101326.33;129528;1264;115665;-66
2024/04/10 12:25:52;;;;;;;7.00;2.00;;;;;;;15.58;57.23;101327.43;129560;1260;114751;-64
2024/04/10 12:28:54;;;;;;;5.40;2.20;;;;;;;15.54;57.18;101335.58;129518;1263;128798;-65
2024/04/10 12:31:56;;;;;;;6.80;2.90;;;;;;;15.51;57.23;101337.71;129852;1265;114899;-65
2024/04/10 12:38:02;;;;;;;4.30;2.00;;;;;;;15.46;57.45;101341.39;129518;1273;114768;-65
2024/04/10 12:38:20;;;;;;;4.80;2.50;;;;;;;15.45;57.34;101345.59;129124;1263;114808;-64
2024/04/10 12:41:22;;;;;;;3.50;2.10;;;;;;;15.50;58.04;101348.73;129478;1263;114743;-67
2024/04/10 12:44:24;;;;;;;6.30;2.60;;;;;;;15.61;58.06;101347.66;129888;1272;114817;-65
2024/04/10 12:47:27;;;;;;;4.40;2.00;;;;;;;15.73;58.43;101344.27;129330;1265;114718;-66
2024/04/10 12:50:29;;;;;;;5.90;2.30;;;;;;;15.88;58.03;101338.83;129411;1272;114783;-65
2024/04/10 12:53:31;;;;;;;7.70;2.40;;;;;;;16.07;58.53;101333.27;129444;1281;115422;-68
2024/04/10 12:56:34;;;;;;;6.60;2.20;;;;;;;16.29;58.11;101331.85;129222;1275;114784;-65
2024/04/10 12:59:36;;;;;;;4.20;2.30;;;;;;;16.40;57.55;101331.43;129433;1281;114753;-65
2024/04/10 13:02:38;;;;;;;4.80;2.10;;;;;;;16.51;57.55;101331.67;130011;1272;114779;-65
2024/04/10 13:05:40;;;;;;;5.30;2.00;;;;;;;16.65;57.39;101325.41;130052;1258;115383;-65
2024/04/10 13:08:42;;;;;;;3.60;1.80;;;;;;;16.76;57.13;101326.42;129699;1267;114945;-69
2024/04/10 13:11:44;;;;;;;5.40;1.80;;;;;;;16.80;56.98;101329.44;129826;1265;114725;-63
2024/04/10 13:14:46;;;;;;;5.60;2.40;;;;;;;16.81;56.93;101334.97;129844;1261;114826;-70
2024/04/10 13:17:49;;;;;;;4.40;2.50;;;;;;;16.77;56.38;101335.21;129638;1267;114729;-66
2024/04/10 13:20:55;;;;;;;5.90;3.20;;;;;;;16.69;56.32;101332.60;130047;1264;115370;-63
2024/04/10 13:23:58;;;;;;;7.30;3.60;;;;;;;16.67;56.37;101334.92;129912;1281;114852;-63
2024/04/10 13:27:00;;;;;;;7.40;4.00;;;;;;;16.68;56.31;101333.41;129580;1275;114871;-70
2024/04/10 13:30:04;;;;;;;6.40;3.50;;;;;;;16.65;55.92;101338.41;129753;1272;114791;-63
2024/04/10 13:33:06;;;;;;;5.10;1.70;;;;;;;16.64;55.83;101341.77;130051;1273;115427;-68
2024/04/10 13:36:12;;;;;;;5.00;1.70;;;;;;;16.60;55.72;101347.21;129852;1263;114766;-71
2024/04/10 13:39:15;;;;;;;6.00;2.40;;;;;;;16.54;55.74;101347.71;129243;1266;114846;-64
2024/04/10 13:42:17;;;;;;;6.30;2.70;;;;;;;16.49;55.69;101354.90;129530;1266;114893;-68
2024/04/10 13:45:20;;;;;;;7.30;3.70;;;;;;;16.41;55.57;101350.27;129456;1264;114770;-68
2024/04/10 13:48:22;;;;;;;3.10;1.70;;;;;;;16.35;55.85;101354.04;129845;1263;114843;-68
2024/04/10 13:51:29;;;;;;;5.60;2.30;;;;;;;16.29;55.80;101358.72;129283;1265;114749;-64